Time;durP1;ratioP1;P1;durP2;ratioP2;P2;SDS_P1;SDS_P2;PMS_P1;PMS_P2;Temp;Humidity;BMP_temperature;BMP_pressure;BME280_temperature;BME280_humidity;BME280_pressure;Samples;Min_cycle;Max_cycle;Signal;HPM_P1;HPM_P2
2021/10/28 00:14:32;;;;;;;102.60;11.63;;;4.10;99.90;;;;;;5146060;27;20508;-82
2021/10/28 00:16:59;;;;;;;117.50;10.20;;;4.10;99.90;;;;;;5144962;27;20929;-82
2021/10/28 00:19:28;;;;;;;70.57;9.93;;;4.10;99.90;;;;;;5146142;27;20192;-82
2021/10/28 00:21:55;;;;;;;114.17;10.67;;;4.10;99.90;;;;;;5145763;27;20195;-82
2021/10/28 00:24:22;;;;;;;65.23;8.87;;;;;;;;;;5145749;27;20182;-82
2021/10/28 00:26:49;;;;;;;95.87;9.00;;;4.00;99.90;;;;;;5144680;27;20416;-82
2021/10/28 00:29:17;;;;;;;126.87;9.20;;;3.90;99.90;;;;;;5144536;27;20473;-82
2021/10/28 00:31:45;;;;;;;105.63;10.13;;;3.90;99.90;;;;;;5144645;27;20251;-82
2021/10/28 00:34:12;;;;;;;193.93;16.77;;;3.90;99.90;;;;;;5143825;27;20440;-81
2021/10/28 00:36:38;;;;;;;70.97;9.50;;;3.90;99.90;;;;;;5145303;27;20159;-82
2021/10/28 00:39:08;;;;;;;217.60;15.17;;;3.90;99.90;;;;;;5145950;27;20413;-82
2021/10/28 00:41:34;;;;;;;45.77;10.20;;;;;;;;;;5140374;27;20226;-81
2021/10/28 00:44:00;;;;;;;116.90;12.90;;;4.10;99.90;;;;;;5143028;27;20417;-82
2021/10/28 00:46:29;;;;;;;95.47;10.07;;;4.10;99.90;;;;;;5149634;27;20176;-82
2021/10/28 00:48:55;;;;;;;129.50;12.03;;;4.00;99.90;;;;;;5146991;27;20203;-82
2021/10/28 00:51:23;;;;;;;77.20;9.80;;;4.00;99.90;;;;;;5148789;27;20187;-82
2021/10/28 00:53:51;;;;;;;119.70;11.00;;;3.90;99.90;;;;;;5148223;27;20503;-81
2021/10/28 00:56:17;;;;;;;94.90;10.83;;;3.90;99.90;;;;;;5149598;27;20408;-82
2021/10/28 00:58:43;;;;;;;41.23;9.43;;;3.90;99.90;;;;;;5151360;27;20416;-82
2021/10/28 01:01:10;;;;;;;94.47;10.70;;;;;;;;;;5152047;27;20428;-82
2021/10/28 01:03:39;;;;;;;151.33;11.77;;;3.90;99.90;;;;;;5151816;27;20175;-82
2021/10/28 01:06:07;;;;;;;148.03;11.50;;;3.90;99.90;;;;;;5152269;27;20437;-82
2021/10/28 01:08:37;;;;;;;179.60;13.37;;;3.90;99.90;;;;;;5150797;27;20445;-82
2021/10/28 01:11:03;;;;;;;124.27;12.40;;;3.90;99.90;;;;;;5150049;27;20432;-82
2021/10/28 01:13:29;;;;;;;80.00;11.17;;;3.90;99.90;;;;;;5149668;27;20412;-81
2021/10/28 01:15:55;;;;;;;71.73;10.10;;;;;;;;;;5150524;27;20236;-82
2021/10/28 01:18:23;;;;;;;54.90;9.97;;;4.00;99.90;;;;;;5148767;27;20182;-82
2021/10/28 01:20:52;;;;;;;54.57;9.30;;;3.90;99.90;;;;;;5144159;27;20436;-82
2021/10/28 01:23:23;;;;;;;68.33;9.50;;;4.10;99.90;;;;;;5146807;27;20534;-81
2021/10/28 01:25:59;;;;;;;90.80;8.70;;;3.90;99.90;;;;;;5150969;27;20389;-81
2021/10/28 01:28:28;;;;;;;99.13;8.90;;;3.70;99.90;;;;;;5142562;27;20171;-82
2021/10/28 01:31:00;;;;;;;51.20;9.23;;;3.50;99.90;;;;;;5144875;27;20195;-82
2021/10/28 01:33:26;;;;;;;55.07;8.30;;;3.50;99.90;;;;;;5143199;27;20440;-82
2021/10/28 01:35:53;;;;;;;59.97;8.77;;;3.50;99.90;;;;;;5145468;27;20435;-82
2021/10/28 01:38:19;;;;;;;67.43;11.70;;;3.60;99.90;;;;;;5145644;27;20445;-82
2021/10/28 01:41:02;;;;;;;71.27;9.73;;;3.70;99.90;;;;;;5146347;27;20496;-82
2021/10/28 01:43:30;;;;;;;87.60;10.07;;;3.70;99.90;;;;;;5144622;27;20411;-82
2021/10/28 01:45:56;;;;;;;61.77;9.90;;;3.60;99.90;;;;;;5154703;27;20174;-82
2021/10/28 01:48:23;;;;;;;97.60;11.63;;;3.40;99.90;;;;;;5142127;27;20774;-83
2021/10/28 01:50:48;;;;;;;75.63;11.77;;;3.30;99.90;;;;;;5152867;27;20202;-81
2021/10/28 01:53:15;;;;;;;82.87;11.47;;;3.40;99.90;;;;;;5156084;27;20175;-81
2021/10/28 01:55:41;;;;;;;63.60;10.53;;;3.20;99.90;;;;;;5156215;27;20171;-81
2021/10/28 01:58:08;;;;;;;53.77;8.77;;;3.30;99.90;;;;;;5147935;27;20469;-81
2021/10/28 02:00:35;;;;;;;57.27;8.70;;;3.10;99.90;;;;;;5142900;27;20255;-82
2021/10/28 02:03:01;;;;;;;46.60;8.90;;;3.00;99.90;;;;;;5141706;27;20206;-81
2021/10/28 02:05:27;;;;;;;58.23;8.93;;;3.00;99.90;;;;;;5142340;28;20436;-82
2021/10/28 02:07:53;;;;;;;56.90;9.47;;;3.00;99.90;;;;;;5141867;27;20412;-82
2021/10/28 02:10:20;;;;;;;74.93;8.53;;;3.00;99.90;;;;;;5141473;28;20202;-82
2021/10/28 02:12:47;;;;;;;95.70;8.73;;;3.00;99.90;;;;;;5142896;28;20169;-82
2021/10/28 02:15:15;;;;;;;176.00;18.10;;;2.90;99.90;;;;;;5141948;28;20408;-82
2021/10/28 02:17:42;;;;;;;86.03;8.30;;;2.80;99.90;;;;;;5142203;27;20408;-82
2021/10/28 02:20:11;;;;;;;118.57;10.97;;;2.60;99.90;;;;;;5141859;28;20408;-82
2021/10/28 02:22:37;;;;;;;116.30;8.37;;;2.60;99.90;;;;;;5144889;27;20425;-81
2021/10/28 02:25:05;;;;;;;132.37;7.83;;;2.60;99.90;;;;;;5141471;28;20476;-82
2021/10/28 02:27:31;;;;;;;81.40;6.83;;;2.60;99.90;;;;;;5142504;27;20763;-82
2021/10/28 02:29:57;;;;;;;111.83;8.17;;;2.40;99.90;;;;;;5143232;28;20448;-82
2021/10/28 02:32:23;;;;;;;95.27;7.77;;;2.40;99.90;;;;;;5142721;27;20443;-82
2021/10/28 02:34:50;;;;;;;163.27;7.97;;;2.30;99.90;;;;;;5141546;28;20173;-81
2021/10/28 02:37:17;;;;;;;64.50;7.27;;;2.30;99.90;;;;;;5143022;27;20210;-82
2021/10/28 02:39:43;;;;;;;91.63;6.57;;;;;;;;;;5142763;28;20779;-81
2021/10/28 02:42:11;;;;;;;57.70;6.20;;;;;;;;;;5143757;27;20455;-81
2021/10/28 02:44:37;;;;;;;168.57;16.27;;;;;;;;;;5143021;28;20440;-81
2021/10/28 02:47:03;;;;;;;70.67;7.10;;;2.10;99.90;;;;;;5144755;27;20436;-81
2021/10/28 02:49:29;;;;;;;79.57;6.67;;;2.00;99.90;;;;;;5141112;28;20459;-82
2021/10/28 02:51:54;;;;;;;46.90;6.93;;;2.20;99.90;;;;;;5140971;28;20195;-81
2021/10/28 02:54:22;;;;;;;133.50;9.70;;;1.90;99.90;;;;;;5141330;28;20642;-81
2021/10/28 02:56:48;;;;;;;55.00;7.73;;;1.80;99.90;;;;;;5141846;28;20181;-82
2021/10/28 02:59:14;;;;;;;25.73;6.40;;;1.80;99.90;;;;;;5143154;27;20733;-82
2021/10/28 03:01:48;;;;;;;138.47;8.47;;;1.70;99.90;;;;;;5145744;27;20446;-82
2021/10/28 03:04:15;;;;;;;104.57;7.90;;;1.80;99.90;;;;;;5145928;27;20201;-82
2021/10/28 03:06:42;;;;;;;82.37;6.60;;;1.60;99.90;;;;;;5147138;27;20404;-81
2021/10/28 03:09:12;;;;;;;146.57;8.33;;;1.40;99.90;;;;;;5146048;27;20759;-81
2021/10/28 03:11:40;;;;;;;127.20;10.60;;;1.30;99.90;;;;;;5146467;27;20925;-81
2021/10/28 03:14:06;;;;;;;95.83;7.87;;;;;;;;;;5144987;27;20420;-81
2021/10/28 03:19:33;;;;;;;55.30;8.27;;;1.40;99.90;;;;;;5146689;27;20788;-81
2021/10/28 03:27:30;;;;;;;58.50;6.47;;;1.20;99.90;;;;;;5146469;27;20446;-81
2021/10/28 03:29:56;;;;;;;37.83;5.43;;;1.30;99.90;;;;;;5144831;27;20483;-81
2021/10/28 03:32:22;;;;;;;35.87;6.10;;;1.40;99.90;;;;;;5147157;27;20432;-82
2021/10/28 03:34:50;;;;;;;41.20;6.07;;;;;;;;;;5145145;27;20643;-81
2021/10/28 03:37:28;;;;;;;50.33;9.13;;;;;;;;;;5145607;27;20405;-81
2021/10/28 03:40:15;;;;;;;19.67;9.43;;;;;;;;;;5146457;27;20405;-81
2021/10/28 04:04:33;;;;;;;30.80;11.30;;;;;;;;;;5125674;28;20239;-81
2021/10/28 04:07:04;;;;;;;22.70;10.23;;;;;;;;;;5143911;27;20412;-81
2021/10/28 04:28:55;;;;;;;8.20;7.13;;;1.20;99.90;;;;;;5145050;27;20964;-81
2021/10/28 04:31:36;;;;;;;6.57;5.40;;;1.30;99.90;;;;;;5144560;27;20416;-81
2021/10/28 04:34:06;;;;;;;6.20;5.03;;;1.30;99.90;;;;;;5143443;27;20972;-81
2021/10/28 04:36:32;;;;;;;5.80;5.20;;;;;;;;;;5143662;27;20504;-81
2021/10/28 04:38:59;;;;;;;5.57;5.00;;;1.20;99.90;;;;;;5143821;27;20419;-81
2021/10/28 04:41:25;;;;;;;6.50;5.53;;;;;;;;;;5144392;27;20573;-81
2021/10/28 04:43:51;;;;;;;6.40;5.30;;;;;;;;;;5142914;27;20867;-81
2021/10/28 04:46:18;;;;;;;7.90;5.70;;;;;;;;;;5143159;27;20404;-81
2021/10/28 04:48:44;;;;;;;6.30;5.70;;;;;;;;;;5142975;27;20452;-81
2021/10/28 04:51:10;;;;;;;7.30;5.50;;;;;;;;;;5142774;27;20433;-81
2021/10/28 04:53:36;;;;;;;6.67;5.97;;;;;;;;;;5144053;27;20436;-82
2021/10/28 04:56:02;;;;;;;7.47;6.00;;;;;;;;;;5143827;27;20405;-81
2021/10/28 04:58:28;;;;;;;9.80;5.60;;;;;;;;;;5143201;27;20410;-81
2021/10/28 05:00:54;;;;;;;6.30;5.33;;;;;;;;;;5143129;27;20437;-81
2021/10/28 05:03:21;;;;;;;6.87;4.83;;;;;;;;;;5143520;27;20457;-81
2021/10/28 05:05:47;;;;;;;6.43;4.70;;;;;;;;;;5143913;27;20481;-81
2021/10/28 05:08:13;;;;;;;6.10;4.97;;;;;;;;;;5144141;27;20481;-81
2021/10/28 05:10:45;;;;;;;6.57;5.07;;;1.30;99.90;;;;;;5143890;27;20432;-81
2021/10/28 05:13:15;;;;;;;7.87;5.50;;;1.20;99.90;;;;;;5143321;27;20412;-81
2021/10/28 05:15:47;;;;;;;6.80;4.83;;;1.20;99.90;;;;;;5142822;27;20401;-81
2021/10/28 05:18:14;;;;;;;8.47;6.00;;;1.10;99.90;;;;;;5144217;27;20404;-81
2021/10/28 05:20:40;;;;;;;7.57;5.47;;;1.20;99.90;;;;;;5145003;27;20436;-81
2021/10/28 05:23:06;;;;;;;7.50;5.30;;;;;;;;;;5147066;27;20411;-81
2021/10/28 05:25:32;;;;;;;6.90;5.33;;;;;;;;;;5148059;27;20405;-81
2021/10/28 05:27:59;;;;;;;7.67;5.17;;;;;;;;;;5148658;27;20403;-81
2021/10/28 05:30:25;;;;;;;5.60;4.73;;;;;;;;;;5147610;27;20456;-81
2021/10/28 05:32:51;;;;;;;9.77;5.33;;;;;;;;;;5143948;27;20424;-80
2021/10/28 05:35:17;;;;;;;6.57;4.53;;;1.10;99.90;;;;;;5142625;27;20404;-80
2021/10/28 05:37:44;;;;;;;7.07;4.90;;;;;;;;;;5143900;27;20197;-81
2021/10/28 05:40:11;;;;;;;5.47;4.47;;;;;;;;;;5143173;27;20408;-81
2021/10/28 05:42:42;;;;;;;7.67;4.57;;;;;;;;;;5144349;27;20517;-81
2021/10/28 05:45:08;;;;;;;5.90;5.00;;;0.80;99.90;;;;;;5144806;27;20414;-80
2021/10/28 05:47:34;;;;;;;7.33;4.63;;;;;;;;;;5143530;27;20423;-81
2021/10/28 05:50:00;;;;;;;9.13;5.60;;;;;;;;;;5143897;27;20788;-81
2021/10/28 05:52:26;;;;;;;5.93;4.73;;;;;;;;;;5143919;27;20467;-80
2021/10/28 05:54:53;;;;;;;9.03;5.57;;;;;;;;;;5143927;27;20404;-81
2021/10/28 05:57:19;;;;;;;6.80;4.60;;;;;;;;;;5150940;27;20433;-80
2021/10/28 05:59:45;;;;;;;6.40;4.57;;;;;;;;;;5154576;27;20412;-80
2021/10/28 06:02:11;;;;;;;9.20;4.53;;;;;;;;;;5155063;27;20199;-80
2021/10/28 06:04:37;;;;;;;6.03;4.47;;;;;;;;;;5149821;28;20182;-81
2021/10/28 06:07:03;;;;;;;6.00;4.40;;;;;;;;;;5144457;27;20182;-80
2021/10/28 06:09:29;;;;;;;6.03;4.57;;;;;;;;;;5144696;27;20203;-81
2021/10/28 06:11:57;;;;;;;7.70;4.07;;;;;;;;;;5144922;27;20845;-80
2021/10/28 06:14:25;;;;;;;7.30;5.50;;;;;;;;;;5146067;27;20426;-81
2021/10/28 06:17:03;;;;;;;7.40;4.83;;;;;;;;;;5144468;28;20410;-80
2021/10/28 06:19:29;;;;;;;7.53;5.60;;;;;;;;;;5144204;27;20396;-80
2021/10/28 06:21:55;;;;;;;7.63;4.90;;;;;;;;;;5145578;27;20424;-81
2021/10/28 06:24:22;;;;;;;6.63;4.93;;;;;;;;;;5146454;27;20163;-81
2021/10/28 06:26:48;;;;;;;7.77;5.77;;;;;;;;;;5147940;27;20412;-81
2021/10/28 06:29:14;;;;;;;6.77;4.90;;;;;;;;;;5149443;27;20997;-80
2021/10/28 06:31:41;;;;;;;7.67;5.13;;;;;;;;;;5144027;27;20420;-80
2021/10/28 06:34:10;;;;;;;6.63;4.63;;;;;;;;;;5144858;27;20419;-80
2021/10/28 06:36:37;;;;;;;5.03;3.40;;;;;;;;;;5146741;27;20408;-80
2021/10/28 06:39:04;;;;;;;6.80;4.57;;;1.20;99.90;;;;;;5146744;27;20762;-80
2021/10/28 06:41:31;;;;;;;5.87;4.40;;;;;;;;;;5147309;27;20432;-80
2021/10/28 06:44:00;;;;;;;7.57;4.60;;;;;;;;;;5146982;27;20448;-80
2021/10/28 06:46:27;;;;;;;5.43;3.63;;;1.30;99.90;;;;;;5147683;27;20426;-81
2021/10/28 06:48:53;;;;;;;5.53;3.97;;;;;;;;;;5147576;27;20452;-80
2021/10/28 06:51:20;;;;;;;8.13;5.87;;;;;;;;;;5148260;27;20416;-81
2021/10/28 07:04:20;;;;;;;5.53;4.43;;;;;;;;;;5149174;27;20392;-81
2021/10/28 07:06:46;;;;;;;8.63;5.63;;;;;;;;;;5148691;27;20416;-81
2021/10/28 07:09:20;;;;;;;6.67;4.70;;;;;;;;;;5149189;27;20487;-81
2021/10/28 07:11:54;;;;;;;23.80;9.80;;;;;;;;;;5151129;27;20420;-81
2021/10/28 07:14:20;;;;;;;6.43;4.43;;;;;;;;;;5154864;27;20400;-80
2021/10/28 07:19:36;;;;;;;26.23;11.10;;;;;;;;;;5161035;27;20425;-80
2021/10/28 07:25:05;;;;;;;13.90;5.90;;;;;;;;;;5143996;27;20468;-81
2021/10/28 07:35:29;;;;;;;10.57;5.53;;;;;;;;;;5147254;27;20407;-81
2021/10/28 07:59:50;;;;;;;7.87;4.80;;;6.30;99.90;;;;;;5149649;27;20417;-81
2021/10/28 08:29:39;;;;;;;3.13;2.17;;;10.60;99.90;;;;;;5145413;27;20262;-82
2021/10/28 08:32:06;;;;;;;4.63;1.97;;;10.80;99.90;;;;;;5147764;27;20675;-82
2021/10/28 08:34:36;;;;;;;2.40;1.97;;;10.70;99.90;;;;;;5145349;27;20198;-82
2021/10/28 08:37:12;;;;;;;2.57;2.00;;;10.60;99.90;;;;;;5146390;27;20159;-82
2021/10/28 08:39:39;;;;;;;3.20;2.07;;;10.90;99.90;;;;;;5146129;27;20169;-82
2021/10/28 08:42:11;;;;;;;3.83;2.33;;;11.30;99.90;;;;;;5147550;27;20186;-82
2021/10/28 08:44:40;;;;;;;3.50;2.23;;;11.80;99.90;;;;;;5146105;27;20175;-83
2021/10/28 08:47:08;;;;;;;5.27;2.20;;;12.40;99.90;;;;;;5146819;27;20210;-82
2021/10/28 08:49:46;;;;;;;3.13;2.13;;;12.80;99.90;;;;;;5147104;27;20206;-82
2021/10/28 08:55:12;;;;;;;2.40;2.07;;;13.00;99.90;;;;;;5148240;27;20168;-82
2021/10/28 09:00:21;;;;;;;3.90;2.40;;;13.20;99.90;;;;;;5146564;27;20180;-82
2021/10/28 09:25:32;;;;;;;4.03;1.60;;;15.30;98.10;;;;;;5144830;27;20579;-81
2021/10/28 09:28:18;;;;;;;2.10;1.30;;;15.60;97.10;;;;;;5145569;27;20159;-82
2021/10/28 09:30:52;;;;;;;3.40;1.67;;;15.90;96.50;;;;;;5143683;27;20203;-82
2021/10/28 09:33:33;;;;;;;3.83;1.73;;;15.90;94.00;;;;;;5145312;27;20193;-82
2021/10/28 09:52:48;;;;;;;1.80;1.47;;;16.80;90.00;;;;;;5146161;27;20187;-80
2021/10/28 09:58:05;;;;;;;2.90;1.53;;;17.20;89.20;;;;;;5146294;27;20183;-80
2021/10/28 10:00:39;;;;;;;1.90;1.60;;;17.80;91.90;;;;;;5146722;27;20195;-81
2021/10/28 10:03:10;;;;;;;2.20;1.43;;;18.10;87.50;;;;;;5144137;27;20668;-80
2021/10/28 10:05:37;;;;;;;5.43;1.60;;;18.50;91.30;;;;;;5142865;28;20178;-81
2021/10/28 10:08:07;;;;;;;2.00;1.60;;;18.60;90.00;;;;;;5145084;27;20200;-82
2021/10/28 10:10:33;;;;;;;2.07;1.43;;;18.90;85.20;;;;;;5147934;28;20187;-78
2021/10/28 10:12:59;;;;;;;1.77;1.50;;;19.30;85.60;;;;;;5151064;28;20242;-80
2021/10/28 10:15:26;;;;;;;2.63;1.37;;;19.70;89.10;;;;;;5150084;27;20172;-80
2021/10/28 10:17:55;;;;;;;1.97;1.50;;;20.00;86.40;;;;;;5151169;28;20614;-82
2021/10/28 10:20:34;;;;;;;2.40;1.77;;;20.40;85.50;;;;;;5146563;28;20169;-80
2021/10/28 12:14:06;;;;;;;7.87;2.50;;;23.60;77.30;;;;;;5131111;28;20273;-82
2021/10/28 12:44:22;;;;;;;3.60;2.80;;;25.30;68.10;;;;;;5107118;28;20187;-82
2021/10/28 12:52:34;;;;;;;3.77;2.77;;;25.70;68.10;;;;;;5129240;28;20295;-82
2021/10/28 13:35:09;;;;;;;5.97;2.60;;;25.50;66.20;;;;;;5130206;28;20209;-82
2021/10/28 13:50:34;;;;;;;3.73;3.10;;;25.70;63.20;;;;;;5134973;28;20193;-82
2021/10/28 15:28:20;;;;;;;6.07;3.83;;;13.50;99.90;;;;;;5127272;28;20178;-84
2021/10/28 15:41:52;;;;;;;14.70;5.30;;;12.90;99.90;;;;;;5127805;28;20211;-82
2021/10/28 16:22:29;;;;;;;9.53;5.50;;;10.80;99.90;;;;;;5131680;28;20202;-82
2021/10/28 16:24:55;;;;;;;7.27;5.70;;;10.80;99.90;;;;;;5126514;28;20176;-83
2021/10/28 16:27:21;;;;;;;6.50;5.50;;;10.70;99.90;;;;;;5126592;28;20195;-83
2021/10/28 16:29:47;;;;;;;8.10;6.30;;;10.60;99.90;;;;;;5127882;28;20270;-83
2021/10/28 16:32:14;;;;;;;9.57;6.17;;;10.30;99.90;;;;;;5127947;28;20227;-82
2021/10/28 16:34:40;;;;;;;9.50;6.70;;;10.30;99.90;;;;;;5138280;27;20692;-82
2021/10/28 16:37:06;;;;;;;10.40;7.30;;;10.30;99.90;;;;;;5156795;27;20174;-83
2021/10/28 16:39:31;;;;;;;11.47;6.93;;;10.20;99.90;;;;;;5153949;27;20202;-83
2021/10/28 16:41:58;;;;;;;9.53;7.03;;;;;;;;;;5140049;27;20229;-83
2021/10/28 16:44:25;;;;;;;13.23;6.80;;;10.00;99.90;;;;;;5131111;28;20549;-83
2021/10/28 16:46:51;;;;;;;9.57;7.07;;;9.90;99.90;;;;;;5128440;28;20243;-83
2021/10/28 16:49:17;;;;;;;14.23;6.50;;;9.80;99.90;;;;;;5127914;28;20195;-83
2021/10/28 16:51:44;;;;;;;12.07;8.27;;;9.70;99.90;;;;;;5127889;28;20700;-83
2021/10/28 16:54:10;;;;;;;12.70;8.50;;;9.50;99.90;;;;;;5126329;28;20705;-83
2021/10/28 16:56:36;;;;;;;12.73;8.33;;;9.50;99.90;;;;;;5126816;28;20174;-83
2021/10/28 16:59:03;;;;;;;13.90;7.97;;;9.50;99.90;;;;;;5128685;28;20178;-82
2021/10/28 17:01:29;;;;;;;13.40;9.43;;;9.40;99.90;;;;;;5136187;28;20226;-82
2021/10/28 17:03:55;;;;;;;11.07;8.77;;;9.40;99.90;;;;;;5135222;28;20183;-82
2021/10/28 17:06:21;;;;;;;14.60;9.00;;;9.30;99.90;;;;;;5134952;28;20176;-82
2021/10/28 17:08:49;;;;;;;13.53;9.27;;;9.30;99.90;;;;;;5131365;28;20194;-83
2021/10/28 17:11:16;;;;;;;13.93;8.77;;;9.10;99.90;;;;;;5123457;28;20195;-83
2021/10/28 17:13:42;;;;;;;13.47;9.30;;;9.10;99.90;;;;;;5125739;28;20167;-83
2021/10/28 17:16:08;;;;;;;15.60;9.90;;;9.10;99.90;;;;;;5126471;28;20175;-83
2021/10/28 17:18:34;;;;;;;13.20;10.10;;;9.00;99.90;;;;;;5123865;28;20179;-83
2021/10/28 17:21:05;;;;;;;13.37;9.73;;;8.90;99.90;;;;;;5126344;28;20199;-83
2021/10/28 17:23:38;;;;;;;15.27;10.70;;;8.80;99.90;;;;;;5125858;28;20164;-83
2021/10/28 17:26:04;;;;;;;17.73;11.77;;;8.70;99.90;;;;;;5121687;28;20217;-83
2021/10/28 17:28:32;;;;;;;17.87;12.53;;;8.70;99.90;;;;;;5125215;28;20180;-86
2021/10/28 17:30:58;;;;;;;16.50;12.47;;;8.70;99.90;;;;;;5125272;28;20209;-84
2021/10/28 17:33:24;;;;;;;22.73;12.90;;;8.60;99.90;;;;;;5125733;28;20213;-84
2021/10/28 17:35:51;;;;;;;18.67;12.43;;;8.60;99.90;;;;;;5123218;28;20202;-83
2021/10/28 17:38:17;;;;;;;17.93;11.90;;;8.50;99.90;;;;;;5124860;28;20171;-83
2021/10/28 17:40:43;;;;;;;20.13;11.47;;;;;;;;;;5125242;28;20254;-83
2021/10/28 17:43:11;;;;;;;19.03;11.17;;;;;;;;;;5125982;28;20220;-83
2021/10/28 17:45:38;;;;;;;25.10;11.57;;;;;;;;;;5126290;28;20177;-85
2021/10/28 17:48:04;;;;;;;21.60;11.37;;;8.20;99.90;;;;;;5126483;28;20264;-84
2021/10/28 17:50:30;;;;;;;18.67;12.47;;;;;;;;;;5126570;28;20209;-83
2021/10/28 17:52:56;;;;;;;18.87;12.37;;;;;;;;;;5138157;27;20174;-83
2021/10/28 17:55:22;;;;;;;20.43;11.17;;;;;;;;;;5148126;27;20637;-84
2021/10/28 17:57:52;;;;;;;17.10;11.70;;;;;;;;;;5146291;27;20175;-83
2021/10/28 18:00:20;;;;;;;20.63;13.80;;;;;;;;;;5154896;27;20181;-83
2021/10/28 18:02:46;;;;;;;19.83;13.37;;;;;;;;;;5147419;27;20550;-83
2021/10/28 18:05:12;;;;;;;24.03;14.87;;;;;;;;;;5146231;27;20184;-83
2021/10/28 18:07:39;;;;;;;23.93;15.20;;;;;;;;;;5143717;27;20177;-83
2021/10/28 18:10:05;;;;;;;33.63;19.40;;;7.80;99.90;;;;;;5145147;27;20639;-83
2021/10/28 18:12:32;;;;;;;38.73;20.67;;;7.70;99.90;;;;;;5143861;28;20287;-83
2021/10/28 18:14:59;;;;;;;40.40;22.27;;;;;;;;;;5144428;28;20610;-83
2021/10/28 18:17:25;;;;;;;37.43;20.20;;;;;;;;;;5145592;27;20179;-83
2021/10/28 18:19:51;;;;;;;37.17;21.43;;;;;;;;;;5145283;28;20187;-83
2021/10/28 18:22:17;;;;;;;41.97;21.73;;;7.60;99.90;;;;;;5144586;28;20654;-82
2021/10/28 18:24:43;;;;;;;25.00;17.13;;;;;;;;;;5144744;28;20177;-83
2021/10/28 18:27:10;;;;;;;23.60;15.33;;;7.50;99.90;;;;;;5145493;27;20219;-83
2021/10/28 18:29:37;;;;;;;19.97;13.33;;;7.40;99.90;;;;;;5152347;27;20179;-82
2021/10/28 18:32:05;;;;;;;21.77;12.63;;;7.40;99.90;;;;;;5159674;27;20221;-83
2021/10/28 18:34:31;;;;;;;20.37;13.73;;;;;;;;;;5160029;27;20180;-82
2021/10/28 18:36:57;;;;;;;22.33;15.40;;;;;;;;;;5155015;27;20175;-83
2021/10/28 18:39:23;;;;;;;22.97;15.63;;;;;;;;;;5152248;27;20178;-83
2021/10/28 18:41:53;;;;;;;28.33;19.77;;;;;;;;;;5154089;27;20222;-83
2021/10/28 18:44:19;;;;;;;34.03;23.17;;;;;;;;;;5149348;27;20185;-83
2021/10/28 18:46:45;;;;;;;40.47;26.53;;;7.20;99.90;;;;;;5150929;27;20173;-83
2021/10/28 18:49:11;;;;;;;62.60;36.00;;;7.20;99.90;;;;;;5148856;27;20617;-83
2021/10/28 18:51:40;;;;;;;98.73;51.27;;;;;;;;;;5149187;27;20222;-83
2021/10/28 18:54:06;;;;;;;146.33;66.67;;;;;;;;;;5148822;27;20181;-82
2021/10/28 18:56:33;;;;;;;92.03;47.73;;;;;;;;;;5149237;27;20200;-83
2021/10/28 18:58:59;;;;;;;35.50;21.63;;;;;;;;;;5149160;27;20205;-83
2021/10/28 19:01:27;;;;;;;36.47;22.10;;;;;;;;;;5149217;27;20201;-82
2021/10/28 19:03:54;;;;;;;48.80;28.60;;;;;;;;;;5148960;27;20180;-83
2021/10/28 19:06:20;;;;;;;30.27;19.90;;;;;;;;;;5149833;27;20571;-83
2021/10/28 19:08:46;;;;;;;20.97;15.33;;;;;;;;;;5149544;27;20175;-83
2021/10/28 19:11:15;;;;;;;18.83;12.90;;;7.00;99.90;;;;;;5151793;27;20194;-82
2021/10/28 19:13:42;;;;;;;17.30;12.40;;;;;;;;;;5151169;27;20729;-83
2021/10/28 19:16:08;;;;;;;19.03;13.27;;;7.00;99.90;;;;;;5148713;27;20219;-83
2021/10/28 19:18:34;;;;;;;15.27;10.40;;;;;;;;;;5148806;27;20179;-81
2021/10/28 19:21:01;;;;;;;18.77;11.03;;;6.80;99.90;;;;;;5148842;27;20211;-81
2021/10/28 19:23:27;;;;;;;13.90;10.00;;;;;;;;;;5149737;27;20178;-82
2021/10/28 19:25:55;;;;;;;13.27;8.97;;;6.70;99.90;;;;;;5147713;27;20179;-82
2021/10/28 19:28:24;;;;;;;13.07;9.13;;;6.60;99.90;;;;;;5147381;27;20185;-82
2021/10/28 19:30:54;;;;;;;15.77;10.50;;;;;;;;;;5148181;27;20295;-82
2021/10/28 19:33:23;;;;;;;11.40;8.53;;;6.70;99.90;;;;;;5147024;27;20224;-82
2021/10/28 19:35:57;;;;;;;12.53;7.47;;;6.70;99.90;;;;;;5147852;27;20176;-82
2021/10/28 19:48:31;;;;;;;12.07;8.37;;;6.40;99.90;;;;;;5148163;27;20178;-84
2021/10/28 19:50:58;;;;;;;11.80;7.87;;;6.40;99.90;;;;;;5146587;27;20292;-84
2021/10/28 19:53:24;;;;;;;27.47;11.73;;;;;;;;;;5147872;27;20165;-84
2021/10/28 19:55:51;;;;;;;14.80;8.83;;;6.30;99.90;;;;;;5147010;27;20211;-84
2021/10/28 19:58:21;;;;;;;11.87;7.83;;;;;;;;;;5145574;27;20623;-84
2021/10/28 20:05:52;;;;;;;14.17;8.13;;;6.20;99.90;;;;;;5150540;27;20173;-84
2021/10/28 20:21:52;;;;;;;12.67;7.43;;;6.00;99.90;;;;;;5148191;27;20252;-84
2021/10/28 20:24:20;;;;;;;12.07;7.10;;;;;;;;;;5146054;27;20192;-84
2021/10/28 20:26:46;;;;;;;10.17;6.67;;;5.90;99.90;;;;;;5145871;27;20181;-85
2021/10/28 20:29:12;;;;;;;13.70;7.33;;;;;;;;;;5147072;27;20201;-84
2021/10/28 20:31:38;;;;;;;11.07;6.90;;;;;;;;;;5149102;27;20191;-84
2021/10/28 20:39:00;;;;;;;7.87;5.50;;;5.70;99.90;;;;;;5158506;27;20178;-84
2021/10/28 20:41:27;;;;;;;12.33;6.63;;;5.70;99.90;;;;;;5156844;27;20195;-84
2021/10/28 20:43:55;;;;;;;11.77;7.33;;;5.60;99.90;;;;;;5152889;27;20405;-84
2021/10/28 20:46:22;;;;;;;10.10;6.53;;;;;;;;;;5144980;27;20420;-84
2021/10/28 20:48:49;;;;;;;10.90;7.07;;;5.60;99.90;;;;;;5145485;27;20178;-84
2021/10/28 20:51:16;;;;;;;9.43;6.93;;;5.60;99.90;;;;;;5145756;27;20323;-84
2021/10/28 20:53:42;;;;;;;10.97;7.37;;;;;;;;;;5144100;27;20186;-84
2021/10/28 20:56:08;;;;;;;9.33;6.53;;;;;;;;;;5145732;27;20445;-84
2021/10/28 20:58:35;;;;;;;8.33;6.50;;;;;;;;;;5146078;27;20409;-84
2021/10/28 21:01:02;;;;;;;9.80;7.47;;;5.60;99.90;;;;;;5147828;27;20481;-84
2021/10/28 21:03:28;;;;;;;10.27;7.07;;;;;;;;;;5146657;27;20178;-83
2021/10/28 21:05:55;;;;;;;8.83;6.27;;;;;;;;;;5149839;27;20409;-85
2021/10/28 21:08:23;;;;;;;13.63;7.70;;;;;;;;;;5146490;27;20405;-84
2021/10/28 21:10:49;;;;;;;7.77;6.33;;;;;;;;;;5144914;27;20464;-83
2021/10/28 21:13:14;;;;;;;8.83;6.43;;;5.50;99.90;;;;;;5145186;27;20472;-83
2021/10/28 21:15:40;;;;;;;9.63;6.27;;;;;;;;;;5144615;27;20199;-85
2021/10/28 21:18:08;;;;;;;8.43;6.57;;;;;;;;;;5145289;27;20163;-84
2021/10/28 21:20:34;;;;;;;7.47;6.50;;;;;;;;;;5146007;27;20407;-84
2021/10/28 21:23:01;;;;;;;12.83;7.83;;;;;;;;;;5145897;27;20174;-84
2021/10/28 21:25:27;;;;;;;12.30;7.37;;;5.60;99.90;;;;;;5145303;27;20175;-84
2021/10/28 21:27:54;;;;;;;10.87;8.13;;;;;;;;;;5143942;27;20409;-84
2021/10/28 21:30:20;;;;;;;9.10;6.80;;;5.60;99.90;;;;;;5144816;27;20448;-84
2021/10/28 21:32:46;;;;;;;8.10;6.67;;;5.60;99.90;;;;;;5143477;27;20448;-84
2021/10/28 21:35:12;;;;;;;8.60;6.43;;;5.50;99.90;;;;;;5144219;27;20410;-84
2021/10/28 21:37:41;;;;;;;9.57;6.93;;;5.50;99.90;;;;;;5144279;27;20170;-84
2021/10/28 21:40:08;;;;;;;9.90;7.20;;;5.50;99.90;;;;;;5140240;27;20408;-84
2021/10/28 21:42:35;;;;;;;11.60;7.83;;;5.40;99.90;;;;;;5143054;27;20461;-84
2021/10/28 21:45:00;;;;;;;11.13;6.80;;;5.40;99.90;;;;;;5144985;27;20419;-84
2021/10/28 21:47:27;;;;;;;10.77;7.20;;;5.40;99.90;;;;;;5145173;27;20413;-84
2021/10/28 21:49:55;;;;;;;8.60;6.63;;;5.40;99.90;;;;;;5144628;27;20263;-84
2021/10/28 21:52:25;;;;;;;10.63;7.17;;;5.40;99.90;;;;;;5144917;27;20432;-84
2021/10/28 21:57:32;;;;;;;9.23;6.47;;;5.20;99.90;;;;;;5145194;27;20413;-84
2021/10/28 22:00:15;;;;;;;8.80;6.10;;;5.20;99.90;;;;;;5144589;27;20415;-84
2021/10/28 22:24:42;;;;;;;8.87;6.00;;;5.00;99.90;;;;;;5145779;28;20209;-84
2021/10/28 22:27:08;;;;;;;8.70;5.97;;;5.00;99.90;;;;;;5145143;27;20184;-84
2021/10/28 22:29:34;;;;;;;7.40;5.37;;;5.00;99.90;;;;;;5146010;27;20565;-84
2021/10/28 22:32:00;;;;;;;8.13;5.97;;;4.90;99.90;;;;;;5144550;28;20188;-84
2021/10/28 22:34:26;;;;;;;9.63;5.93;;;4.90;99.90;;;;;;5145569;28;20191;-84
2021/10/28 22:37:04;;;;;;;7.17;5.70;;;4.90;99.90;;;;;;5145152;28;20179;-84
2021/10/28 22:42:16;;;;;;;10.27;6.00;;;4.90;99.90;;;;;;5146571;28;20203;-84
2021/10/28 22:44:42;;;;;;;10.97;7.00;;;5.00;99.90;;;;;;5149887;27;20176;-83
2021/10/28 22:47:08;;;;;;;8.20;5.87;;;4.80;99.90;;;;;;5154562;28;20172;-84
2021/10/28 22:49:34;;;;;;;9.37;6.13;;;;;;;;;;5154299;28;20206;-83
2021/10/28 22:52:07;;;;;;;9.47;5.73;;;4.70;99.90;;;;;;5150491;28;20287;-85
2021/10/28 22:54:33;;;;;;;8.80;5.70;;;4.60;99.90;;;;;;5137418;27;20202;-84
2021/10/28 22:57:00;;;;;;;9.87;6.27;;;;;;;;;;5139195;27;20179;-84
2021/10/28 22:59:26;;;;;;;7.73;5.10;;;4.60;99.90;;;;;;5143699;28;20175;-84
2021/10/28 23:02:04;;;;;;;8.53;5.87;;;4.50;99.90;;;;;;5144342;28;20188;-84
2021/10/28 23:12:37;;;;;;;7.80;5.57;;;4.30;99.90;;;;;;5144134;28;20194;-84
2021/10/28 23:23:02;;;;;;;7.27;4.80;;;4.30;99.90;;;;;;5149897;27;20215;-84
2021/10/28 23:25:28;;;;;;;6.03;4.23;;;;;;;;;;5151034;27;20172;-84
2021/10/28 23:27:54;;;;;;;5.63;4.60;;;4.30;99.90;;;;;;5152492;27;20176;-84